createdAt,value
2017-07-30T00:01:34.156Z,10.17
2017-07-30T00:04:03.331Z,11.57
2017-07-30T00:06:32.304Z,10.07
2017-07-30T00:09:01.988Z,9.83
2017-07-30T00:11:30.966Z,10.70
2017-07-30T00:13:59.933Z,11.27
2017-07-30T00:16:28.989Z,10.63
2017-07-30T00:18:58.699Z,11.20
2017-07-30T00:21:27.696Z,13.40
2017-07-30T00:23:57.351Z,10.10
2017-07-30T00:26:26.346Z,10.80
2017-07-30T00:28:55.332Z,11.40
2017-07-30T00:31:24.336Z,12.23
2017-07-30T00:33:53.288Z,11.93
2017-07-30T00:36:22.268Z,12.00
2017-07-30T00:38:51.227Z,12.73
2017-07-30T00:41:20.204Z,13.60
2017-07-30T00:43:49.166Z,12.07
2017-07-30T00:46:18.169Z,12.33
2017-07-30T00:48:48.257Z,12.10
2017-07-30T00:51:17.280Z,12.27
2017-07-30T00:53:46.275Z,11.10
2017-07-30T00:56:15.231Z,10.97
2017-07-30T00:58:44.330Z,10.77
2017-07-30T01:01:13.330Z,11.27
2017-07-30T01:03:42.287Z,12.00
2017-07-30T01:06:11.351Z,10.97
2017-07-30T01:08:40.295Z,11.17
2017-07-30T01:11:09.291Z,12.70
2017-07-30T01:13:38.258Z,11.00
2017-07-30T01:16:07.227Z,10.70
2017-07-30T01:18:36.677Z,10.90
2017-07-30T01:21:06.063Z,11.10
2017-07-30T01:23:35.774Z,10.17
2017-07-30T01:26:05.524Z,11.13
2017-07-30T01:28:34.476Z,10.80
2017-07-30T01:31:04.216Z,11.57
2017-07-30T01:33:33.179Z,11.07
2017-07-30T01:36:02.933Z,11.63
2017-07-30T01:38:31.892Z,11.37
2017-07-30T01:41:01.431Z,10.73
2017-07-30T01:43:30.403Z,10.17
2017-07-30T01:46:00.612Z,11.37
2017-07-30T01:48:29.604Z,10.50
2017-07-30T01:50:58.555Z,11.77
2017-07-30T01:53:27.573Z,10.43
2017-07-30T01:55:57.287Z,11.10
2017-07-30T01:58:26.253Z,10.60
2017-07-30T02:00:55.206Z,10.93
2017-07-30T02:03:24.747Z,11.23
2017-07-30T02:05:53.701Z,11.00
2017-07-30T02:08:24.573Z,10.10
2017-07-30T02:10:53.665Z,12.77
2017-07-30T02:15:57.943Z,14.27
2017-07-30T02:18:26.932Z,12.70
2017-07-30T02:20:55.891Z,13.10
2017-07-30T02:23:25.697Z,13.37
2017-07-30T02:25:54.650Z,13.00
2017-07-30T02:28:23.704Z,13.50
2017-07-30T02:30:53.440Z,12.90
2017-07-30T02:33:22.427Z,15.10
2017-07-30T02:35:51.389Z,14.23
2017-07-30T02:38:21.127Z,14.67
2017-07-30T02:40:50.111Z,13.73
2017-07-30T02:43:19.074Z,13.90
2017-07-30T02:45:48.087Z,14.00
2017-07-30T02:48:17.862Z,15.40
2017-07-30T02:50:46.832Z,16.50
2017-07-30T02:53:16.132Z,14.40
2017-07-30T02:55:45.106Z,15.60
2017-07-30T02:58:14.516Z,14.27
2017-07-30T03:00:43.475Z,15.93
2017-07-30T03:03:13.219Z,17.07
2017-07-30T03:05:42.757Z,15.63
2017-07-30T03:08:11.725Z,18.60
2017-07-30T03:10:40.717Z,17.90
2017-07-30T03:13:09.684Z,18.70
2017-07-30T03:15:38.639Z,17.87
2017-07-30T03:18:07.710Z,18.60
2017-07-30T03:20:37.940Z,20.40
2017-07-30T03:23:06.912Z,18.93
2017-07-30T03:25:36.268Z,20.00
2017-07-30T03:28:05.809Z,18.93
2017-07-30T03:30:34.764Z,19.93
2017-07-30T03:33:03.786Z,20.63
2017-07-30T03:35:32.743Z,18.17
2017-07-30T03:38:01.703Z,17.70
2017-07-30T03:40:30.721Z,17.97
2017-07-30T03:43:00.450Z,18.53
2017-07-30T03:45:29.429Z,16.93
2017-07-30T03:47:58.398Z,17.40
2017-07-30T03:50:27.389Z,19.17
2017-07-30T03:52:57.128Z,17.30
2017-07-30T03:55:26.734Z,18.60
2017-07-30T03:57:56.481Z,18.50
2017-07-30T04:00:25.521Z,18.67
2017-07-30T04:02:55.506Z,19.47
2017-07-30T04:05:24.479Z,19.50
2017-07-30T04:07:53.431Z,18.90
2017-07-30T04:10:23.171Z,18.30
2017-07-30T04:12:52.791Z,21.00
2017-07-30T04:15:21.886Z,21.07
2017-07-30T04:17:50.927Z,19.17
2017-07-30T04:20:19.888Z,19.53
2017-07-30T04:22:48.844Z,17.87
2017-07-30T04:25:18.055Z,17.33
2017-07-30T04:27:47.019Z,16.93
2017-07-30T04:30:16.031Z,16.50
2017-07-30T04:32:45.041Z,17.20
2017-07-30T04:35:14.017Z,16.27
2017-07-30T04:37:43.071Z,15.53
2017-07-30T04:40:12.827Z,15.20
2017-07-30T04:42:42.099Z,15.40
2017-07-30T04:45:11.685Z,17.03
2017-07-30T04:47:40.644Z,15.00
2017-07-30T04:50:09.909Z,15.90
2017-07-30T04:52:38.877Z,15.63
2017-07-30T04:55:07.859Z,14.60
2017-07-30T04:57:37.309Z,13.73
2017-07-30T05:00:06.345Z,14.27
2017-07-30T05:02:35.303Z,15.00
2017-07-30T05:05:04.272Z,14.87
2017-07-30T05:07:34.354Z,13.53
2017-07-30T05:10:04.078Z,13.57
2017-07-30T05:12:33.206Z,13.93
2017-07-30T05:15:02.191Z,13.63
2017-07-30T05:17:31.166Z,12.87
2017-07-30T05:20:00.134Z,15.07
2017-07-30T05:22:29.889Z,13.20
2017-07-30T05:24:58.859Z,12.67
2017-07-30T05:27:27.825Z,10.60
2017-07-30T05:29:56.808Z,11.37
2017-07-30T05:32:25.786Z,10.00
2017-07-30T05:34:54.738Z,9.80
2017-07-30T05:37:23.705Z,9.80
2017-07-30T05:39:53.420Z,11.10
2017-07-30T05:42:22.505Z,10.00
2017-07-30T05:44:52.210Z,9.63
2017-07-30T05:47:21.510Z,8.67
2017-07-30T05:49:50.633Z,8.37
2017-07-30T05:52:19.870Z,9.87
2017-07-30T05:54:48.812Z,11.30
2017-07-30T05:57:17.807Z,7.97
2017-07-30T05:59:47.264Z,7.80
2017-07-30T06:02:16.334Z,8.40
2017-07-30T06:04:45.289Z,8.63
2017-07-30T06:07:14.374Z,7.40
2017-07-30T06:09:44.158Z,8.40
2017-07-30T06:12:13.120Z,7.47
2017-07-30T06:14:42.080Z,7.10
2017-07-30T06:17:11.157Z,7.13
2017-07-30T06:19:40.834Z,6.33
2017-07-30T06:22:09.858Z,7.03
2017-07-30T06:24:38.792Z,7.00
2017-07-30T06:27:07.766Z,7.63
2017-07-30T06:29:37.559Z,7.90
2017-07-30T06:32:07.280Z,6.03
2017-07-30T06:34:36.246Z,5.53
2017-07-30T06:37:06.008Z,5.40
2017-07-30T06:39:34.996Z,7.83
2017-07-30T06:42:03.973Z,9.27
2017-07-30T06:44:32.952Z,8.50
2017-07-30T06:47:01.905Z,5.03
2017-07-30T06:49:30.922Z,5.87
2017-07-30T06:52:00.661Z,5.90
2017-07-30T06:54:29.664Z,5.63
2017-07-30T06:56:58.613Z,7.20
2017-07-30T06:59:28.376Z,6.50
2017-07-30T07:01:57.335Z,5.90
2017-07-30T07:04:26.323Z,7.50
2017-07-30T07:06:55.268Z,6.00
2017-07-30T07:09:24.732Z,5.57
2017-07-30T07:11:53.669Z,6.73
2017-07-30T07:14:22.952Z,6.90
2017-07-30T07:16:52.013Z,7.40
2017-07-30T07:19:20.980Z,11.73
2017-07-30T07:21:50.721Z,7.23
2017-07-30T07:24:19.660Z,7.23
2017-07-30T07:26:48.659Z,5.03
2017-07-30T07:29:17.641Z,6.30
2017-07-30T07:31:46.585Z,4.80
2017-07-30T07:34:15.676Z,6.33
2017-07-30T07:36:44.632Z,6.17
2017-07-30T07:39:14.373Z,5.33
2017-07-30T07:41:43.338Z,5.07
2017-07-30T07:44:12.333Z,6.07
2017-07-30T07:46:41.951Z,4.73
2017-07-30T07:49:11.952Z,5.97
2017-07-30T07:51:41.665Z,6.40
2017-07-30T07:54:11.467Z,6.13
2017-07-30T07:56:40.776Z,4.80
2017-07-30T07:59:10.003Z,6.33
2017-07-30T08:01:39.238Z,6.57
2017-07-30T08:04:08.281Z,5.83
2017-07-30T08:06:38.183Z,4.73
2017-07-30T08:09:07.989Z,4.60
2017-07-30T08:11:36.937Z,4.23
2017-07-30T08:14:06.726Z,6.90
2017-07-30T08:16:35.784Z,3.80
2017-07-30T08:19:04.750Z,7.77
2017-07-30T08:21:33.841Z,4.80
2017-07-30T08:24:03.088Z,4.93
2017-07-30T08:26:32.097Z,6.37
2017-07-30T08:29:02.205Z,4.37
2017-07-30T08:31:31.178Z,4.60
2017-07-30T08:34:00.893Z,5.00
2017-07-30T08:36:30.020Z,4.97
2017-07-30T08:38:58.962Z,4.60
2017-07-30T08:41:28.706Z,6.10
2017-07-30T08:43:57.889Z,5.20
2017-07-30T08:46:26.846Z,5.97
2017-07-30T08:48:55.796Z,5.50
2017-07-30T08:51:24.763Z,5.90
2017-07-30T08:53:53.713Z,5.43
2017-07-30T08:56:22.682Z,5.57
2017-07-30T08:58:51.649Z,6.27
2017-07-30T09:01:20.764Z,5.18
2017-07-30T09:03:49.756Z,7.60
2017-07-30T09:06:19.016Z,4.20
2017-07-30T09:08:48.765Z,4.87
2017-07-30T09:11:17.729Z,3.97
2017-07-30T09:13:46.690Z,5.07
2017-07-30T09:16:15.714Z,4.27
2017-07-30T09:18:45.415Z,3.83
2017-07-30T09:21:14.385Z,3.57
2017-07-30T09:23:43.366Z,4.20
2017-07-30T09:26:12.363Z,4.30
2017-07-30T09:28:41.354Z,4.30
2017-07-30T09:31:10.309Z,3.97
2017-07-30T09:33:39.267Z,4.73
2017-07-30T09:36:08.256Z,4.23
2017-07-30T09:38:37.226Z,4.30
2017-07-30T09:41:06.160Z,3.93
2017-07-30T09:43:35.213Z,3.83
2017-07-30T09:46:04.219Z,4.37
2017-07-30T09:48:34.029Z,3.50
2017-07-30T09:51:02.975Z,3.30
2017-07-30T09:53:31.960Z,3.93
2017-07-30T09:56:00.936Z,3.83
2017-07-30T09:58:29.971Z,3.50
2017-07-30T10:00:58.955Z,2.80
2017-07-30T10:03:27.981Z,3.10
2017-07-30T10:05:57.038Z,2.33
2017-07-30T10:08:26.317Z,2.73
2017-07-30T10:10:55.248Z,2.70
2017-07-30T10:13:24.225Z,3.23
2017-07-30T10:15:53.212Z,2.60
2017-07-30T10:18:22.209Z,3.73
2017-07-30T10:20:51.162Z,2.10
2017-07-30T10:23:20.131Z,2.20
2017-07-30T10:25:49.100Z,2.40
2017-07-30T10:28:18.109Z,2.20
2017-07-30T10:30:47.079Z,1.80
2017-07-30T10:33:16.764Z,2.10
2017-07-30T10:35:45.762Z,2.53
2017-07-30T10:38:14.775Z,2.17
2017-07-30T10:40:44.202Z,2.60
2017-07-30T10:43:14.033Z,3.90
2017-07-30T10:45:43.016Z,1.60
2017-07-30T10:48:12.716Z,3.07
2017-07-30T10:50:41.690Z,3.03
2017-07-30T10:53:10.678Z,2.23
2017-07-30T10:55:39.658Z,2.90
2017-07-30T10:58:08.622Z,2.60
2017-07-30T11:00:37.935Z,3.47
2017-07-30T11:03:07.216Z,5.00
2017-07-30T11:05:36.190Z,1.93
2017-07-30T11:08:05.167Z,3.07
2017-07-30T11:10:34.299Z,2.07
2017-07-30T11:13:03.261Z,1.93
2017-07-30T11:15:32.282Z,1.67
2017-07-30T11:18:01.237Z,2.13
2017-07-30T11:20:30.221Z,2.83
2017-07-30T11:23:00.012Z,2.33
2017-07-30T11:25:28.998Z,2.27
2017-07-30T11:27:57.938Z,1.90
2017-07-30T11:30:26.930Z,1.93
2017-07-30T11:32:56.005Z,2.60
2017-07-30T11:35:24.951Z,1.90
2017-07-30T11:37:53.946Z,1.73
2017-07-30T11:40:22.921Z,1.70
2017-07-30T11:42:52.028Z,2.40
2017-07-30T11:45:21.004Z,1.90
2017-07-30T11:47:49.947Z,1.77
2017-07-30T11:50:18.952Z,2.83
2017-07-30T11:52:47.922Z,2.50
2017-07-30T11:55:16.896Z,2.63
2017-07-30T11:57:45.858Z,2.70
2017-07-30T12:00:14.829Z,2.10
2017-07-30T12:02:43.914Z,2.53
2017-07-30T12:05:12.920Z,2.50
2017-07-30T12:07:42.640Z,3.97
2017-07-30T12:10:11.580Z,2.10
2017-07-30T12:12:40.888Z,2.30
2017-07-30T12:15:09.858Z,1.93
2017-07-30T12:17:38.833Z,1.93
2017-07-30T12:20:07.830Z,2.17
2017-07-30T12:22:37.035Z,3.37
2017-07-30T12:25:06.059Z,2.93
2017-07-30T12:27:35.067Z,2.00
2017-07-30T12:30:04.125Z,2.17
2017-07-30T12:32:33.089Z,2.40
2017-07-30T12:35:02.063Z,2.33
2017-07-30T12:37:31.004Z,2.03
2017-07-30T12:40:00.022Z,3.20
2017-07-30T12:42:28.984Z,2.10
2017-07-30T12:44:58.048Z,2.53
2017-07-30T12:47:26.992Z,2.00
2017-07-30T12:49:55.968Z,4.40
2017-07-30T12:52:24.920Z,3.00
2017-07-30T12:54:53.853Z,3.37
2017-07-30T12:57:22.833Z,2.30
2017-07-30T12:59:51.866Z,2.50
2017-07-30T13:02:20.809Z,2.10
2017-07-30T13:04:49.808Z,2.27
2017-07-30T13:07:18.798Z,2.20
2017-07-30T13:09:47.875Z,2.70
2017-07-30T13:12:16.820Z,2.87
2017-07-30T13:14:45.802Z,2.50
2017-07-30T13:17:14.820Z,2.60
2017-07-30T13:19:43.808Z,3.83
2017-07-30T13:22:12.750Z,3.30
2017-07-30T13:24:41.740Z,2.10
2017-07-30T13:27:10.746Z,1.97
2017-07-30T13:29:39.702Z,3.97
2017-07-30T13:32:09.524Z,2.33
2017-07-30T13:34:38.649Z,1.70
2017-07-30T13:37:07.675Z,2.40
2017-07-30T13:39:36.652Z,2.30
2017-07-30T13:42:06.466Z,3.17
2017-07-30T13:44:35.490Z,4.10
2017-07-30T13:47:04.762Z,1.77
2017-07-30T13:49:33.729Z,2.80
2017-07-30T13:52:02.701Z,2.50
2017-07-30T13:54:31.717Z,2.00
2017-07-30T13:57:00.734Z,1.93
2017-07-30T13:59:29.793Z,2.43
2017-07-30T14:01:59.170Z,2.23
2017-07-30T14:04:28.516Z,2.00
2017-07-30T14:06:57.509Z,2.87
2017-07-30T14:09:26.477Z,2.13
2017-07-30T14:11:56.270Z,3.47
2017-07-30T14:14:26.377Z,2.50
2017-07-30T14:16:55.360Z,2.10
2017-07-30T14:19:24.322Z,4.07
2017-07-30T14:21:53.312Z,2.53
2017-07-30T14:24:22.270Z,3.00
2017-07-30T14:26:51.268Z,3.03
2017-07-30T14:29:20.214Z,1.47
2017-07-30T14:31:49.183Z,2.40
2017-07-30T14:34:18.247Z,4.27
2017-07-30T14:36:47.430Z,1.63
2017-07-30T14:39:16.464Z,2.50
2017-07-30T14:41:46.241Z,1.77
2017-07-30T14:44:15.849Z,3.03
2017-07-30T14:46:44.826Z,2.33
2017-07-30T14:49:13.803Z,1.40
2017-07-30T14:51:42.916Z,2.03
2017-07-30T14:54:11.898Z,1.53
2017-07-30T14:56:40.867Z,4.00
2017-07-30T14:59:11.351Z,1.00
2017-07-30T15:01:40.315Z,1.67
2017-07-30T15:04:09.260Z,0.80
2017-07-30T15:06:38.249Z,1.73
2017-07-30T15:09:07.266Z,1.20
2017-07-30T15:11:36.216Z,3.73
2017-07-30T15:14:05.191Z,1.67
2017-07-30T15:16:34.209Z,1.50
2017-07-30T15:19:04.513Z,3.70
2017-07-30T15:21:33.495Z,2.43
2017-07-30T15:24:02.464Z,1.80
2017-07-30T15:26:31.430Z,1.57
2017-07-30T15:29:01.381Z,1.87
2017-07-30T15:31:30.374Z,2.67
2017-07-30T15:33:59.323Z,1.50
2017-07-30T15:36:28.262Z,2.60
2017-07-30T15:38:57.269Z,1.93
2017-07-30T15:41:26.259Z,2.27
2017-07-30T15:43:56.054Z,4.07
2017-07-30T15:46:24.998Z,2.03
2017-07-30T15:48:53.971Z,3.10
2017-07-30T15:51:22.946Z,2.53
2017-07-30T15:53:51.916Z,3.40
2017-07-30T15:56:20.860Z,3.67
2017-07-30T15:58:49.869Z,2.57
2017-07-30T16:01:19.609Z,2.90
2017-07-30T16:03:48.579Z,2.63
2017-07-30T16:06:17.562Z,2.77
2017-07-30T16:08:47.290Z,2.90
2017-07-30T16:11:16.276Z,2.43
2017-07-30T16:13:46.024Z,3.17
2017-07-30T16:16:14.993Z,2.70
2017-07-30T16:18:44.110Z,2.53
2017-07-30T16:21:13.138Z,2.80
2017-07-30T16:23:42.072Z,4.23
2017-07-30T16:26:11.057Z,5.07
2017-07-30T16:28:40.797Z,2.43
2017-07-30T16:31:10.023Z,3.07
2017-07-30T16:33:38.963Z,2.33
2017-07-30T16:36:07.974Z,4.90
2017-07-30T16:38:36.933Z,2.30
2017-07-30T16:41:05.932Z,3.17
2017-07-30T16:43:34.929Z,2.07
2017-07-30T16:46:04.002Z,3.97
2017-07-30T16:48:33.729Z,3.30
2017-07-30T16:51:02.707Z,3.43
2017-07-30T16:53:31.666Z,2.03
2017-07-30T16:56:00.642Z,2.47
2017-07-30T16:58:29.644Z,6.03
2017-07-30T17:00:58.608Z,3.80
2017-07-30T17:03:27.635Z,4.97
2017-07-30T17:05:56.625Z,3.10
2017-07-30T17:08:25.590Z,2.93
2017-07-30T17:10:54.577Z,4.60
2017-07-30T17:13:24.398Z,3.80
2017-07-30T17:15:53.362Z,2.83
2017-07-30T17:18:22.334Z,2.53
2017-07-30T17:20:51.325Z,2.37
2017-07-30T17:23:21.139Z,2.50
2017-07-30T17:25:50.330Z,5.33
2017-07-30T17:28:19.275Z,2.60
2017-07-30T17:30:48.230Z,1.90
2017-07-30T17:33:18.028Z,2.83
2017-07-30T17:35:46.998Z,3.03
2017-07-30T17:38:15.974Z,1.80
2017-07-30T17:40:45.058Z,4.47
2017-07-30T17:43:14.018Z,1.40
2017-07-30T17:45:42.990Z,1.40
2017-07-30T17:48:12.680Z,3.80
2017-07-30T17:50:42.561Z,3.60
2017-07-30T17:53:11.525Z,3.13
2017-07-30T17:55:40.519Z,2.60
2017-07-30T17:58:09.483Z,5.10
2017-07-30T18:00:38.487Z,3.87
2017-07-30T18:03:08.237Z,2.77
2017-07-30T18:05:37.372Z,4.53
2017-07-30T18:08:06.343Z,1.73
2017-07-30T18:10:35.342Z,2.60
2017-07-30T18:13:04.302Z,2.63
2017-07-30T18:15:33.291Z,1.97
2017-07-30T18:18:02.261Z,2.03
2017-07-30T18:20:31.208Z,2.70
2017-07-30T18:23:00.242Z,2.27
2017-07-30T18:25:29.984Z,3.53
2017-07-30T18:27:58.981Z,1.90
2017-07-30T18:30:27.928Z,2.83
2017-07-30T18:32:57.267Z,1.33
2017-07-30T18:35:26.273Z,4.93
2017-07-30T18:37:55.253Z,1.53
2017-07-30T18:40:24.214Z,2.07
2017-07-30T18:42:53.968Z,4.57
2017-07-30T18:45:22.990Z,2.60
2017-07-30T18:47:52.686Z,2.80
2017-07-30T18:50:21.658Z,3.90
2017-07-30T18:52:50.633Z,4.03
2017-07-30T18:55:19.656Z,2.40
2017-07-30T18:57:48.627Z,3.47
2017-07-30T19:00:17.655Z,1.73
2017-07-30T19:02:46.652Z,1.77
2017-07-30T19:05:16.346Z,1.10
2017-07-30T19:07:46.090Z,2.47
2017-07-30T19:10:15.238Z,2.17
2017-07-30T19:12:44.270Z,3.13
2017-07-30T19:15:13.261Z,4.07
2017-07-30T19:17:42.391Z,2.67
2017-07-30T19:20:12.862Z,3.67
2017-07-30T19:22:41.829Z,2.87
2017-07-30T19:25:10.928Z,4.67
2017-07-30T19:27:39.958Z,2.73
2017-07-30T19:30:09.720Z,2.50
2017-07-30T19:32:38.678Z,3.00
2017-07-30T19:35:07.855Z,1.40
2017-07-30T19:37:37.620Z,2.60
2017-07-30T19:40:06.675Z,2.17
2017-07-30T19:42:35.731Z,2.20
2017-07-30T19:45:04.723Z,3.90
2017-07-30T19:47:34.784Z,3.03
2017-07-30T19:50:03.742Z,5.00
2017-07-30T19:52:32.730Z,2.33
2017-07-30T19:55:01.858Z,2.03
2017-07-30T19:57:31.695Z,2.87
2017-07-30T20:00:00.741Z,2.13
2017-07-30T20:02:29.715Z,3.50
2017-07-30T20:04:58.711Z,4.53
2017-07-30T20:07:27.690Z,2.53
2017-07-30T20:09:56.666Z,5.43
2017-07-30T20:12:25.729Z,2.10
2017-07-30T20:14:54.726Z,4.30
2017-07-30T20:17:24.489Z,4.33
2017-07-30T20:19:53.478Z,2.20
2017-07-30T20:22:22.470Z,3.50
2017-07-30T20:24:51.571Z,4.80
2017-07-30T20:27:21.994Z,3.40
2017-07-30T20:29:51.020Z,4.17
2017-07-30T20:32:20.115Z,3.13
2017-07-30T20:34:49.090Z,3.70
2017-07-30T20:37:18.056Z,3.10
2017-07-30T20:39:47.044Z,4.63
2017-07-30T20:42:16.002Z,5.23
2017-07-30T20:44:45.150Z,4.70
2017-07-30T20:47:14.324Z,6.87
2017-07-30T20:49:43.326Z,5.00
2017-07-30T20:52:12.518Z,5.10
2017-07-30T20:54:41.506Z,7.93
2017-07-30T20:57:11.834Z,4.80
2017-07-30T20:59:40.866Z,5.40
2017-07-30T21:02:09.852Z,5.40
2017-07-30T21:04:38.818Z,5.17
2017-07-30T21:07:07.806Z,5.93
2017-07-30T21:09:37.831Z,7.53
2017-07-30T21:12:06.789Z,6.60
2017-07-30T21:14:36.822Z,5.60
2017-07-30T21:17:05.795Z,5.73
2017-07-30T21:19:34.770Z,5.20
2017-07-30T21:22:04.603Z,4.80
2017-07-30T21:27:39.314Z,6.17
2017-07-30T21:30:08.296Z,5.80
2017-07-30T21:32:37.348Z,5.60
2017-07-30T21:35:06.425Z,5.13
2017-07-30T21:37:35.374Z,5.27
2017-07-30T21:40:04.342Z,5.57
2017-07-30T21:42:33.315Z,5.13
2017-07-30T21:45:03.353Z,5.37
2017-07-30T21:47:32.309Z,7.13
2017-07-30T21:50:01.289Z,4.97
2017-07-30T21:52:30.257Z,17.03
2017-07-30T21:54:59.233Z,9.60
2017-07-30T21:57:28.190Z,6.00
2017-07-30T21:59:57.172Z,5.70
2017-07-30T22:02:26.165Z,6.20
2017-07-30T22:04:55.233Z,5.40
2017-07-30T22:07:24.453Z,4.97
2017-07-30T22:09:53.430Z,6.63
2017-07-30T22:12:23.154Z,5.13
2017-07-30T22:14:52.134Z,4.80
2017-07-30T22:17:22.165Z,4.80
2017-07-30T22:19:53.427Z,4.67
2017-07-30T22:22:22.385Z,5.07
2017-07-30T22:24:52.126Z,5.20
2017-07-30T22:27:22.641Z,7.40
2017-07-30T22:29:51.699Z,5.87
2017-07-30T22:32:20.689Z,5.27
2017-07-30T22:34:49.642Z,5.40
2017-07-30T22:37:18.613Z,5.30
2017-07-30T22:39:47.578Z,7.80
2017-07-30T22:42:16.925Z,8.90
2017-07-30T22:44:46.122Z,5.40
2017-07-30T22:47:15.047Z,5.60
2017-07-30T22:49:45.741Z,6.90
2017-07-30T22:52:14.730Z,6.67
2017-07-30T22:54:43.691Z,8.93
2017-07-30T22:57:13.633Z,7.57
2017-07-30T22:59:42.563Z,9.80
2017-07-30T23:02:11.647Z,9.87
2017-07-30T23:04:40.602Z,10.40
2017-07-30T23:07:10.503Z,9.90
2017-07-30T23:09:40.225Z,10.57
2017-07-30T23:12:09.202Z,9.67
2017-07-30T23:14:38.157Z,11.17
2017-07-30T23:17:07.148Z,14.30
2017-07-30T23:19:36.105Z,10.00
2017-07-30T23:22:05.090Z,11.57
2017-07-30T23:24:34.050Z,10.90
2017-07-30T23:27:03.793Z,11.33
2017-07-30T23:29:32.759Z,11.60
2017-07-30T23:32:02.980Z,11.10
2017-07-30T23:34:31.962Z,11.03
2017-07-30T23:37:01.710Z,11.10
2017-07-30T23:39:30.658Z,11.60
2017-07-30T23:42:00.208Z,11.93
2017-07-30T23:44:29.185Z,12.07
2017-07-30T23:46:58.195Z,10.90
2017-07-30T23:49:27.196Z,10.60
2017-07-30T23:51:56.188Z,10.77
2017-07-30T23:54:26.384Z,10.77
2017-07-30T23:56:55.352Z,10.60
2017-07-30T23:59:25.089Z,12.30
